Time,TemperatureF,DewpointF,PressureIn,WindDirection,WindDirectionDegrees,WindSpeedMPH,WindSpeedGustMPH,Humidity,HourlyPrecipIn,Conditions,Clouds,dailyrainin,SoftwareType,DateUTC
2013-07-13 00:00:00,58.1,35.1,29.68,NW,319,2.0,4.0,42,0.00,CLR,,0.00,WeatherDisplay:10.37,2013-07-13 07:00:00,
2013-07-13 00:05:00,58.1,35.1,29.68,WSW,249,2.0,9.0,42,0.00,CLR,,0.00,WeatherDisplay:10.37,2013-07-13 07:05:00,
2013-07-13 00:10:00,58.1,35.1,29.65,West,279,0.0,4.0,42,0.00,CLR,,0.00,WeatherDisplay:10.37,2013-07-13 07:10:00,
2013-07-13 00:15:00,58.1,35.1,29.65,NE,39,0.0,3.0,42,0.00,CLR,,0.00,WeatherDisplay:10.37,2013-07-13 07:15:00,
2013-07-13 00:20:00,58.1,35.1,29.65,NE,40,0.0,3.0,42,0.00,CLR,,0.00,WeatherDisplay:10.37,2013-07-13 07:20:00,
2013-07-13 00:25:00,58.1,35.1,29.65,ESE,103,2.0,6.0,42,0.00,CLR,,0.00,WeatherDisplay:10.37,2013-07-13 07:25:00,
2013-07-13 00:30:00,58.1,35.1,29.65,WSW,252,0.0,3.0,42,0.00,CLR,,0.00,WeatherDisplay:10.37,2013-07-13 07:30:00,
2013-07-13 00:35:00,58.1,35.1,29.65,NNW,337,0.0,6.0,42,0.00,CLR,,0.00,WeatherDisplay:10.37,2013-07-13 07:35:00,
2013-07-13 00:40:00,58.1,35.1,29.65,WNW,303,3.0,5.0,42,0.00,CLR,,0.00,WeatherDisplay:10.37,2013-07-13 07:40:00,
2013-07-13 00:45:00,58.1,35.1,29.65,SW,224,0.0,4.0,42,0.00,CLR,,0.00,WeatherDisplay:10.37,2013-07-13 07:45:00,
2013-07-13 00:50:00,58.1,35.7,29.65,SSE,167,3.0,8.0,43,0.00,CLR,,0.00,WeatherDisplay:10.37,2013-07-13 07:50:00,
2013-07-13 00:55:00,58.1,35.7,29.65,SSW,193,0.0,4.0,43,0.00,CLR,,0.00,WeatherDisplay:10.37,2013-07-13 07:55:00,
2013-07-13 01:00:00,58.1,35.7,29.65,WNW,291,5.0,6.0,43,0.00,CLR,,0.00,WeatherDisplay:10.37,2013-07-13 08:00:00,
2013-07-13 01:05:00,58.1,35.7,29.65,WSW,247,3.0,6.0,43,0.00,CLR,,0.00,WeatherDisplay:10.37,2013-07-13 08:05:00,
2013-07-13 01:10:00,58.1,35.7,29.65,South,191,2.0,8.0,43,0.00,CLR,,0.00,WeatherDisplay:10.37,2013-07-13 08:10:00,
2013-07-13 01:15:00,57.9,35.5,29.65,NW,306,1.0,8.0,43,0.00,CLR,,0.00,WeatherDisplay:10.37,2013-07-13 08:15:00,
2013-07-13 01:20:00,58.1,35.7,29.65,NW,318,2.0,5.0,43,0.00,CLR,,0.00,WeatherDisplay:10.37,2013-07-13 08:20:00,
2013-07-13 01:25:00,58.1,35.7,29.65,WNW,290,3.0,7.0,43,0.00,CLR,,0.00,WeatherDisplay:10.37,2013-07-13 08:25:00,
2013-07-13 01:30:00,57.9,35.5,29.65,West,279,3.0,9.0,43,0.00,CLR,,0.00,WeatherDisplay:10.37,2013-07-13 08:30:00,
2013-07-13 01:35:00,57.9,35.5,29.65,West,265,2.0,8.0,43,0.00,CLR,,0.00,WeatherDisplay:10.37,2013-07-13 08:35:00,
2013-07-13 01:40:00,57.8,35.4,29.65,West,263,5.0,8.0,43,0.00,CLR,,0.00,WeatherDisplay:10.37,2013-07-13 08:40:00,
2013-07-13 01:45:00,57.9,35.5,29.65,West,259,5.0,7.0,43,0.00,CLR,,0.00,WeatherDisplay:10.37,2013-07-13 08:45:00,
2013-07-13 01:50:00,57.9,35.5,29.65,West,268,3.0,8.0,43,0.00,CLR,,0.00,WeatherDisplay:10.37,2013-07-13 08:50:00,
2013-07-13 01:55:00,57.9,35.5,29.65,SW,234,3.0,6.0,43,0.00,CLR,,0.00,WeatherDisplay:10.37,2013-07-13 08:55:00,
2013-07-13 02:00:00,57.9,35.5,29.65,West,275,5.0,8.0,43,0.00,CLR,,0.00,WeatherDisplay:10.37,2013-07-13 09:00:00,
2013-07-13 02:05:00,57.7,35.4,29.65,NNW,332,2.0,7.0,43,0.00,CLR,,0.00,WeatherDisplay:10.37,2013-07-13 09:05:00,
2013-07-13 02:10:00,57.7,35.4,29.65,WNW,285,2.0,6.0,43,0.00,CLR,,0.00,WeatherDisplay:10.37,2013-07-13 09:10:00,
2013-07-13 02:15:00,57.7,35.4,29.65,SSE,168,3.0,8.0,43,0.00,CLR,,0.00,WeatherDisplay:10.37,2013-07-13 09:15:00,
2013-07-13 02:20:00,57.6,35.2,29.65,SSE,158,5.0,7.0,43,0.00,CLR,,0.00,WeatherDisplay:10.37,2013-07-13 09:20:00,
2013-07-13 02:25:00,57.6,35.2,29.65,South,186,3.0,6.0,43,0.00,CLR,,0.00,WeatherDisplay:10.37,2013-07-13 09:25:00,
2013-07-13 02:30:00,57.6,35.2,29.65,WSW,256,3.0,6.0,43,0.00,CLR,,0.00,WeatherDisplay:10.37,2013-07-13 09:30:00,
2013-07-13 02:35:00,57.6,35.2,29.65,NNW,337,3.0,10.0,43,0.00,CLR,,0.00,WeatherDisplay:10.37,2013-07-13 09:35:00,
2013-07-13 02:40:00,57.5,35.2,29.65,North,10,2.0,8.0,43,0.00,CLR,,0.00,WeatherDisplay:10.37,2013-07-13 09:40:00,
2013-07-13 02:45:00,57.5,35.7,29.65,SE,138,3.0,5.0,44,0.00,CLR,,0.00,WeatherDisplay:10.37,2013-07-13 09:45:00,
2013-07-13 02:50:00,57.6,35.8,29.65,NE,55,0.0,4.0,44,0.00,CLR,,0.00,WeatherDisplay:10.37,2013-07-13 09:50:00,
2013-07-13 02:55:00,57.6,35.8,29.65,NNW,341,1.0,6.0,44,0.00,CLR,,0.00,WeatherDisplay:10.37,2013-07-13 09:55:00,
2013-07-13 03:00:00,57.6,35.8,29.65,NNW,334,1.0,7.0,44,0.00,CLR,,0.00,WeatherDisplay:10.37,2013-07-13 10:00:00,
2013-07-13 03:05:00,57.4,35.6,29.65,ESE,107,5.0,9.0,44,0.00,CLR,,0.00,WeatherDisplay:10.37,2013-07-13 10:05:00,
2013-07-13 03:10:00,57.5,35.8,29.65,ESE,103,2.0,6.0,44,0.00,CLR,,0.00,WeatherDisplay:10.37,2013-07-13 10:10:00,
2013-07-13 03:15:00,57.6,35.8,29.65,South,176,1.0,5.0,44,0.00,CLR,,0.00,WeatherDisplay:10.37,2013-07-13 10:15:00,
2013-07-13 03:20:00,57.6,35.8,29.65,ENE,58,3.0,4.0,44,0.00,CLR,,0.00,WeatherDisplay:10.37,2013-07-13 10:20:00,
2013-07-13 03:25:00,57.6,35.8,29.68,South,170,2.0,5.0,44,0.00,CLR,,0.00,WeatherDisplay:10.37,2013-07-13 10:25:00,
2013-07-13 03:30:00,57.6,35.8,29.68,ESE,110,0.0,5.0,44,0.00,CLR,,0.00,WeatherDisplay:10.37,2013-07-13 10:30:00,
2013-07-13 03:35:00,57.6,35.8,29.68,West,273,3.0,8.0,44,0.00,CLR,,0.00,WeatherDisplay:10.37,2013-07-13 10:35:00,
2013-07-13 03:40:00,57.5,35.7,29.65,WSW,258,3.0,6.0,44,0.00,CLR,,0.00,WeatherDisplay:10.37,2013-07-13 10:40:00,
2013-07-13 03:45:00,57.4,35.6,29.65,WNW,282,6.0,8.0,44,0.00,CLR,,0.00,WeatherDisplay:10.37,2013-07-13 10:45:00,
2013-07-13 03:50:00,57.5,35.7,29.65,WSW,253,2.0,7.0,44,0.00,CLR,,0.00,WeatherDisplay:10.37,2013-07-13 10:50:00,
2013-07-13 03:55:00,57.4,35.6,29.65,SSW,194,0.0,7.0,44,0.00,CLR,,0.00,WeatherDisplay:10.37,2013-07-13 10:55:00,
2013-07-13 04:00:00,57.4,35.7,29.65,SSE,147,3.0,7.0,44,0.00,CLR,,0.00,WeatherDisplay:10.37,2013-07-13 11:00:00,
2013-07-13 04:05:00,57.6,35.8,29.65,South,169,2.0,8.0,44,0.00,CLR,,0.00,WeatherDisplay:10.37,2013-07-13 11:05:00,
2013-07-13 04:10:00,57.6,35.8,29.65,SSW,198,0.0,6.0,44,0.00,CLR,,0.00,WeatherDisplay:10.37,2013-07-13 11:10:00,
2013-07-13 04:15:00,57.4,36.2,29.65,South,191,0.0,0.0,45,0.00,CLR,,0.00,WeatherDisplay:10.37,2013-07-13 11:15:00,
2013-07-13 04:25:00,57.4,36.2,29.65,SSW,203,0.0,0.0,45,0.00,CLR,,0.00,WeatherDisplay:10.37,2013-07-13 11:25:00,
2013-07-13 04:30:00,57.4,36.2,29.65,SW,220,0.0,0.0,45,0.00,CLR,,0.00,WeatherDisplay:10.37,2013-07-13 11:30:00,
2013-07-13 04:35:00,57.4,36.2,29.65,WSW,248,0.0,0.0,45,0.00,CLR,,0.00,WeatherDisplay:10.37,2013-07-13 11:35:00,
2013-07-13 04:40:00,57.4,36.2,29.65,WSW,246,0.0,0.0,45,0.00,CLR,,0.00,WeatherDisplay:10.37,2013-07-13 11:40:00,
2013-07-13 04:45:00,57.4,36.2,29.65,WSW,247,0.0,0.0,45,0.00,CLR,,0.00,WeatherDisplay:10.37,2013-07-13 11:45:00,
2013-07-13 04:50:00,57.4,36.2,29.65,SSW,203,0.0,0.0,45,0.00,CLR,,0.00,WeatherDisplay:10.37,2013-07-13 11:50:00,
2013-07-13 04:55:00,57.4,36.2,29.65,SSE,148,0.0,0.0,45,0.00,CLR,,0.00,WeatherDisplay:10.37,2013-07-13 11:55:00,
2013-07-13 05:00:00,57.4,36.2,29.65,SSW,192,0.0,0.0,45,0.00,CLR,,0.00,WeatherDisplay:10.37,2013-07-13 12:00:00,
2013-07-13 05:05:00,57.2,36.0,29.65,SSW,207,0.0,0.0,45,0.00,CLR,,0.00,WeatherDisplay:10.37,2013-07-13 12:05:00,
2013-07-13 05:10:00,57.2,36.0,29.65,South,171,0.0,0.0,45,0.00,CLR,,0.00,WeatherDisplay:10.37,2013-07-13 12:10:00,
2013-07-13 05:15:00,57.4,36.2,29.65,SSW,203,0.0,0.0,45,0.00,CLR,,0.00,WeatherDisplay:10.37,2013-07-13 12:15:00,
2013-07-13 05:20:00,57.2,36.0,29.65,West,277,0.0,0.0,45,0.00,CLR,,0.00,WeatherDisplay:10.37,2013-07-13 12:20:00,
2013-07-13 05:25:00,57.2,36.0,29.65,SSE,148,0.0,0.0,45,0.00,CLR,,0.00,WeatherDisplay:10.37,2013-07-13 12:25:00,
2013-07-13 05:30:00,57.4,36.2,29.65,SE,141,0.0,0.0,45,0.00,CLR,,0.00,WeatherDisplay:10.37,2013-07-13 12:30:00,
2013-07-13 05:35:00,57.4,36.2,29.65,South,173,0.0,0.0,45,0.00,CLR,,0.00,WeatherDisplay:10.37,2013-07-13 12:35:00,
2013-07-13 05:40:00,57.4,36.2,29.65,SW,229,0.0,0.0,45,0.00,CLR,,0.00,WeatherDisplay:10.37,2013-07-13 12:40:00,
2013-07-13 05:45:00,57.2,36.0,29.65,West,259,0.0,0.0,45,0.00,CLR,,0.00,WeatherDisplay:10.37,2013-07-13 12:45:00,
2013-07-13 05:50:00,57.2,36.0,29.65,North,7,0.0,0.0,45,0.00,CLR,,0.00,WeatherDisplay:10.37,2013-07-13 12:50:00,
2013-07-13 05:55:00,57.2,36.0,29.68,ESE,111,0.0,0.0,45,0.00,CLR,,0.00,WeatherDisplay:10.37,2013-07-13 12:55:00,
2013-07-13 06:00:00,57.2,36.0,29.68,SE,141,0.0,0.0,45,0.00,CLR,,0.00,WeatherDisplay:10.37,2013-07-13 13:00:00,
2013-07-13 06:10:00,57.0,35.9,29.68,SE,143,0.0,0.0,45,0.00,CLR,,0.00,WeatherDisplay:10.37,2013-07-13 13:10:00,
2013-07-13 06:15:00,56.9,36.3,29.68,South,173,0.0,0.0,46,0.00,CLR,,0.00,WeatherDisplay:10.37,2013-07-13 13:15:00,
2013-07-13 06:20:00,56.8,36.3,29.68,SSE,153,0.0,0.0,46,0.00,CLR,,0.00,WeatherDisplay:10.37,2013-07-13 13:20:00,
2013-07-13 06:25:00,56.8,36.3,29.68,SSE,150,0.0,0.0,46,0.00,CLR,,0.00,WeatherDisplay:10.37,2013-07-13 13:25:00,
2013-07-13 06:30:00,57.0,35.9,29.68,South,185,0.0,0.0,45,0.00,CLR,,0.00,WeatherDisplay:10.37,2013-07-13 13:30:00,
2013-07-13 06:35:00,57.0,35.8,29.68,South,184,0.0,0.0,45,0.00,CLR,,0.00,WeatherDisplay:10.37,2013-07-13 13:35:00,
2013-07-13 06:40:00,56.8,36.3,29.68,SE,145,0.0,0.0,46,0.00,CLR,,0.00,WeatherDisplay:10.37,2013-07-13 13:40:00,
2013-07-13 06:45:00,56.8,36.3,29.68,SSE,150,0.0,0.0,46,0.00,CLR,,0.00,WeatherDisplay:10.37,2013-07-13 13:45:00,
2013-07-13 06:50:00,57.0,35.9,29.68,SSE,164,0.0,0.0,45,0.00,CLR,,0.00,WeatherDisplay:10.37,2013-07-13 13:50:00,
2013-07-13 06:55:00,57.0,35.9,29.68,ENE,62,0.0,0.0,45,0.00,CLR,,0.00,WeatherDisplay:10.37,2013-07-13 13:55:00,
2013-07-13 07:00:00,57.0,35.9,29.68,NE,44,0.0,0.0,45,0.00,CLR,,0.00,WeatherDisplay:10.37,2013-07-13 14:00:00,
2013-07-13 07:05:00,57.0,35.9,29.68,SSW,200,0.0,0.0,45,0.00,CLR,,0.00,WeatherDisplay:10.37,2013-07-13 14:05:00,
2013-07-13 07:10:00,57.0,35.9,29.68,SW,225,0.0,0.0,45,0.00,CLR,,0.00,WeatherDisplay:10.37,2013-07-13 14:10:00,
2013-07-13 07:15:00,57.0,35.9,29.68,WSW,240,0.0,0.0,45,0.00,CLR,,0.00,WeatherDisplay:10.37,2013-07-13 14:15:00,
2013-07-13 07:20:00,57.0,36.4,29.68,SW,229,0.0,0.0,46,0.00,CLR,,0.00,WeatherDisplay:10.37,2013-07-13 14:20:00,
2013-07-13 07:25:00,57.0,36.4,29.68,SW,215,0.0,0.0,46,0.00,CLR,,0.00,WeatherDisplay:10.37,2013-07-13 14:25:00,
2013-07-13 07:30:00,57.0,36.4,29.68,SW,219,0.0,0.0,46,0.00,CLR,,0.00,WeatherDisplay:10.37,2013-07-13 14:30:00,
2013-07-13 07:35:00,57.0,36.4,29.68,SSW,196,0.0,0.0,46,0.00,CLR,,0.00,WeatherDisplay:10.37,2013-07-13 14:35:00,
2013-07-13 07:40:00,57.0,36.4,29.68,SSE,168,0.0,0.0,46,0.00,CLR,,0.00,WeatherDisplay:10.37,2013-07-13 14:40:00,
2013-07-13 07:45:00,57.0,36.4,29.68,SE,134,0.0,0.0,46,0.00,CLR,,0.00,WeatherDisplay:10.37,2013-07-13 14:45:00,
2013-07-13 07:50:00,57.1,36.5,29.68,South,170,0.0,0.0,46,0.00,CLR,,0.00,WeatherDisplay:10.37,2013-07-13 14:50:00,
2013-07-13 07:55:00,57.2,36.6,29.71,South,170,0.0,0.0,46,0.00,CLR,,0.00,WeatherDisplay:10.37,2013-07-13 14:55:00,
2013-07-13 08:00:00,57.2,36.6,29.71,SSE,151,0.0,0.0,46,0.00,CLR,,0.00,WeatherDisplay:10.37,2013-07-13 15:00:00,
2013-07-13 08:05:00,57.2,36.6,29.71,SSE,151,0.0,0.0,46,0.00,CLR,,0.00,WeatherDisplay:10.37,2013-07-13 15:05:00,
2013-07-13 08:10:00,57.4,36.7,29.71,SE,143,0.0,0.0,46,0.00,CLR,,0.00,WeatherDisplay:10.37,2013-07-13 15:10:00,
2013-07-13 08:15:00,57.4,36.8,29.71,SSW,213,0.0,0.0,46,0.00,CLR,,0.00,WeatherDisplay:10.37,2013-07-13 15:15:00,
2013-07-13 08:20:00,57.4,36.8,29.71,SW,235,0.0,0.0,46,0.00,CLR,,0.00,WeatherDisplay:10.37,2013-07-13 15:20:00,
2013-07-13 08:25:00,57.6,36.9,29.71,SW,234,0.0,0.0,46,0.00,CLR,,0.00,WeatherDisplay:10.37,2013-07-13 15:25:00,
2013-07-13 08:30:00,57.7,37.1,29.71,WSW,249,3.0,9.0,46,0.00,CLR,,0.00,WeatherDisplay:10.37,2013-07-13 15:30:00,
2013-07-13 08:35:00,57.7,37.1,29.71,SW,234,3.0,8.0,46,0.00,CLR,,0.00,WeatherDisplay:10.37,2013-07-13 15:35:00,
2013-07-13 08:40:00,57.8,36.6,29.71,WSW,247,3.0,8.0,45,0.00,CLR,,0.00,WeatherDisplay:10.37,2013-07-13 15:40:00,
2013-07-13 08:45:00,57.9,36.7,29.71,WSW,248,5.0,10.0,45,0.00,CLR,,0.00,WeatherDisplay:10.37,2013-07-13 15:45:00,
2013-07-13 08:50:00,57.9,36.7,29.71,WSW,241,3.0,9.0,45,0.00,CLR,,0.00,WeatherDisplay:10.37,2013-07-13 15:50:00,
2013-07-13 08:55:00,58.1,36.9,29.71,WSW,251,3.0,6.0,45,0.00,CLR,,0.00,WeatherDisplay:10.37,2013-07-13 15:55:00,
2013-07-13 09:00:00,58.2,37.0,29.71,WSW,247,3.0,6.0,45,0.00,CLR,,0.00,WeatherDisplay:10.37,2013-07-13 16:00:00,
2013-07-13 09:10:00,58.5,37.2,29.71,WSW,247,3.0,7.0,45,0.00,CLR,,0.00,WeatherDisplay:10.37,2013-07-13 16:10:00,
2013-07-13 09:15:00,58.5,37.2,29.71,West,273,5.0,8.0,45,0.00,CLR,,0.00,WeatherDisplay:10.37,2013-07-13 16:15:00,
2013-07-13 09:20:00,58.6,37.3,29.71,West,263,5.0,9.0,45,0.00,CLR,,0.00,WeatherDisplay:10.37,2013-07-13 16:20:00,
2013-07-13 09:25:00,58.6,37.3,29.71,West,264,5.0,9.0,45,0.00,CLR,,0.00,WeatherDisplay:10.37,2013-07-13 16:25:00,
2013-07-13 09:30:00,58.8,36.9,29.71,West,260,5.0,7.0,44,0.00,CLR,,0.00,WeatherDisplay:10.37,2013-07-13 16:30:00,
2013-07-13 09:35:00,59.0,37.1,29.71,West,264,2.0,8.0,44,0.00,CLR,,0.00,WeatherDisplay:10.37,2013-07-13 16:35:00,
2013-07-13 09:40:00,59.0,37.1,29.71,WNW,287,3.0,6.0,44,0.00,CLR,,0.00,WeatherDisplay:10.37,2013-07-13 16:40:00,
2013-07-13 09:45:00,59.2,37.3,29.71,WSW,238,5.0,10.0,44,0.00,CLR,,0.00,WeatherDisplay:10.37,2013-07-13 16:45:00,
2013-07-13 09:50:00,59.2,37.3,29.71,SW,217,0.0,3.0,44,0.00,CLR,,0.00,WeatherDisplay:10.37,2013-07-13 16:50:00,
2013-07-13 09:55:00,59.4,37.4,29.71,WSW,240,1.0,5.0,44,0.00,CLR,,0.00,WeatherDisplay:10.37,2013-07-13 16:55:00,
2013-07-13 10:00:00,59.5,37.6,29.71,WSW,239,3.0,6.0,44,0.00,CLR,,0.00,WeatherDisplay:10.37,2013-07-13 17:00:00,
2013-07-13 10:05:00,59.5,37.6,29.71,WSW,247,5.0,8.0,44,0.00,CLR,,0.00,WeatherDisplay:10.37,2013-07-13 17:05:00,
2013-07-13 10:10:00,59.7,37.8,29.71,WSW,255,3.0,7.0,44,0.00,CLR,,0.00,WeatherDisplay:10.37,2013-07-13 17:10:00,
2013-07-13 10:15:00,59.9,37.9,29.71,SSW,195,2.0,10.0,44,0.00,CLR,,0.00,WeatherDisplay:10.37,2013-07-13 17:15:00,
2013-07-13 10:20:00,59.9,37.9,29.71,SW,231,6.0,10.0,44,0.00,CLR,,0.00,WeatherDisplay:10.37,2013-07-13 17:20:00,
2013-07-13 10:25:00,60.1,37.5,29.71,WSW,255,5.0,8.0,43,0.00,CLR,,0.00,WeatherDisplay:10.37,2013-07-13 17:25:00,
2013-07-13 10:30:00,60.3,37.7,29.71,West,267,6.0,10.0,43,0.00,CLR,,0.00,WeatherDisplay:10.37,2013-07-13 17:30:00,
2013-07-13 10:35:00,60.3,37.7,29.71,West,274,5.0,8.0,43,0.00,CLR,,0.00,WeatherDisplay:10.37,2013-07-13 17:35:00,
2013-07-13 10:40:00,60.4,37.8,29.71,WSW,248,5.0,10.0,43,0.00,CLR,,0.00,WeatherDisplay:10.37,2013-07-13 17:40:00,
2013-07-13 10:45:00,60.4,37.8,29.71,West,263,5.0,9.0,43,0.00,CLR,,0.00,WeatherDisplay:10.37,2013-07-13 17:45:00,
2013-07-13 10:50:00,60.6,37.4,29.71,SW,217,5.0,9.0,42,0.00,CLR,,0.00,WeatherDisplay:10.37,2013-07-13 17:50:00,
2013-07-13 10:55:00,60.9,37.7,29.71,South,177,3.0,8.0,42,0.00,CLR,,0.00,WeatherDisplay:10.37,2013-07-13 17:55:00,
2013-07-13 11:00:00,61.0,37.7,29.71,SSE,164,3.0,14.0,42,0.00,CLR,,0.00,WeatherDisplay:10.37,2013-07-13 18:00:00,
2013-07-13 11:05:00,61.1,37.2,29.71,SSW,192,6.0,14.0,41,0.00,CLR,,0.00,WeatherDisplay:10.37,2013-07-13 18:05:00,
2013-07-13 11:10:00,61.2,37.3,29.71,South,185,2.0,12.0,41,0.00,CLR,,0.00,WeatherDisplay:10.37,2013-07-13 18:10:00,
2013-07-13 11:15:00,61.3,37.4,29.71,South,172,5.0,8.0,41,0.00,CLR,,0.00,WeatherDisplay:10.37,2013-07-13 18:15:00,
2013-07-13 11:20:00,61.5,37.6,29.71,South,190,5.0,8.0,41,0.00,CLR,,0.00,WeatherDisplay:10.37,2013-07-13 18:20:00,
2013-07-13 11:25:00,61.5,37.6,29.71,ENE,74,3.0,6.0,41,0.00,CLR,,0.00,WeatherDisplay:10.37,2013-07-13 18:25:00,
2013-07-13 11:30:00,61.8,37.8,29.71,WNW,283,5.0,8.0,41,0.00,CLR,,0.00,WeatherDisplay:10.37,2013-07-13 18:30:00,
2013-07-13 11:40:00,62.1,37.4,29.71,West,263,5.0,12.0,40,0.00,CLR,,0.00,WeatherDisplay:10.37,2013-07-13 18:40:00,
2013-07-13 11:45:00,62.2,37.6,29.71,West,260,6.0,9.0,40,0.00,CLR,,0.00,WeatherDisplay:10.37,2013-07-13 18:45:00,
2013-07-13 11:50:00,62.4,37.8,29.71,West,260,5.0,8.0,40,0.00,CLR,,0.00,WeatherDisplay:10.37,2013-07-13 18:50:00,
2013-07-13 11:55:00,62.6,37.3,29.71,NNW,340,5.0,8.0,39,0.00,CLR,,0.00,WeatherDisplay:10.37,2013-07-13 18:55:00,
2013-07-13 12:00:00,62.8,37.4,29.71,West,279,3.0,7.0,39,0.00,CLR,,0.00,WeatherDisplay:10.37,2013-07-13 19:00:00,
2013-07-13 12:05:00,63.0,37.6,29.71,SW,233,6.0,9.0,39,0.00,CLR,,0.00,WeatherDisplay:10.37,2013-07-13 19:05:00,
2013-07-13 12:10:00,63.1,37.8,29.71,SW,215,5.0,9.0,39,0.00,CLR,,0.00,WeatherDisplay:10.37,2013-07-13 19:10:00,
2013-07-13 12:15:00,63.3,37.9,29.71,SW,222,6.0,10.0,39,0.00,CLR,,0.00,WeatherDisplay:10.37,2013-07-13 19:15:00,
2013-07-13 12:20:00,63.5,37.4,29.71,West,262,5.0,9.0,38,0.00,CLR,,0.00,WeatherDisplay:10.37,2013-07-13 19:20:00,
2013-07-13 12:25:00,63.7,37.6,29.71,WSW,257,5.0,9.0,38,0.00,CLR,,0.00,WeatherDisplay:10.37,2013-07-13 19:25:00,
2013-07-13 12:30:00,63.9,37.7,29.71,West,261,5.0,9.0,38,0.00,CLR,,0.00,WeatherDisplay:10.37,2013-07-13 19:30:00,
2013-07-13 12:35:00,63.9,37.7,29.71,WSW,256,7.0,14.0,38,0.00,CLR,,0.00,WeatherDisplay:10.37,2013-07-13 19:35:00,
2013-07-13 12:40:00,64.0,37.9,29.71,SW,230,6.0,9.0,38,0.00,CLR,,0.00,WeatherDisplay:10.37,2013-07-13 19:40:00,
2013-07-13 12:45:00,64.2,37.4,29.71,WSW,242,7.0,13.0,37,0.00,CLR,,0.00,WeatherDisplay:10.37,2013-07-13 19:45:00,
2013-07-13 12:50:00,64.4,37.5,29.71,WSW,253,5.0,10.0,37,0.00,CLR,,0.00,WeatherDisplay:10.37,2013-07-13 19:50:00,
2013-07-13 12:55:00,64.6,37.7,29.71,WNW,282,6.0,10.0,37,0.00,CLR,,0.00,WeatherDisplay:10.37,2013-07-13 19:55:00,
2013-07-13 13:00:00,64.9,37.3,29.71,West,263,6.0,13.0,36,0.00,CLR,,0.00,WeatherDisplay:10.37,2013-07-13 20:00:00,
2013-07-13 13:05:00,65.1,37.5,29.71,WSW,257,5.0,10.0,36,0.00,CLR,,0.00,WeatherDisplay:10.37,2013-07-13 20:05:00,
2013-07-13 13:10:00,65.3,37.6,29.71,WSW,254,6.0,12.0,36,0.00,CLR,,0.00,WeatherDisplay:10.37,2013-07-13 20:10:00,
2013-07-13 13:15:00,65.7,38.0,29.71,West,262,8.0,9.0,36,0.00,CLR,,0.00,WeatherDisplay:10.37,2013-07-13 20:15:00,
2013-07-13 13:20:00,65.8,38.1,29.71,SW,229,7.0,10.0,36,0.00,CLR,,0.00,WeatherDisplay:10.37,2013-07-13 20:20:00,
2013-07-13 13:25:00,66.1,37.6,29.71,SW,234,6.0,10.0,35,0.00,CLR,,0.00,WeatherDisplay:10.37,2013-07-13 20:25:00,
2013-07-13 13:30:00,66.5,37.9,29.71,SSW,211,3.0,9.0,35,0.00,CLR,,0.00,WeatherDisplay:10.37,2013-07-13 20:30:00,
2013-07-13 13:35:00,66.6,38.1,29.71,SSW,196,3.0,7.0,35,0.00,CLR,,0.00,WeatherDisplay:10.37,2013-07-13 20:35:00,
2013-07-13 13:40:00,67.0,38.4,29.71,SW,233,5.0,10.0,35,0.00,CLR,,0.00,WeatherDisplay:10.37,2013-07-13 20:40:00,
2013-07-13 13:45:00,66.9,38.4,29.71,West,261,3.0,10.0,35,0.00,CLR,,0.00,WeatherDisplay:10.37,2013-07-13 20:45:00,
2013-07-13 13:50:00,66.9,37.6,29.71,WSW,255,3.0,10.0,34,0.00,CLR,,0.00,WeatherDisplay:10.37,2013-07-13 20:50:00,
2013-07-13 13:55:00,66.9,37.6,29.71,South,182,3.0,8.0,34,0.00,CLR,,0.00,WeatherDisplay:10.37,2013-07-13 20:55:00,
2013-07-13 14:00:00,66.7,37.5,29.71,SW,229,6.0,9.0,34,0.00,CLR,,0.00,WeatherDisplay:10.37,2013-07-13 21:00:00,
2013-07-13 14:05:00,66.6,37.3,29.71,WSW,248,5.0,8.0,34,0.00,CLR,,0.00,WeatherDisplay:10.37,2013-07-13 21:05:00,
2013-07-13 14:10:00,66.4,37.1,29.71,East,95,5.0,6.0,34,0.00,CLR,,0.00,WeatherDisplay:10.37,2013-07-13 21:10:00,
2013-07-13 14:15:00,66.2,37.0,29.71,NNW,342,6.0,10.0,34,0.00,CLR,,0.00,WeatherDisplay:10.37,2013-07-13 21:15:00,
2013-07-13 14:20:00,66.2,36.2,29.71,WSW,256,5.0,8.0,33,0.00,CLR,,0.00,WeatherDisplay:10.37,2013-07-13 21:20:00,
2013-07-13 14:25:00,66.0,36.8,29.71,WSW,243,3.0,10.0,34,0.00,CLR,,0.00,WeatherDisplay:10.37,2013-07-13 21:25:00,
2013-07-13 14:30:00,66.0,36.1,29.71,NW,324,6.0,10.0,33,0.00,CLR,,0.00,WeatherDisplay:10.37,2013-07-13 21:30:00,
2013-07-13 14:35:00,65.8,36.7,29.71,WSW,244,6.0,8.0,34,0.00,CLR,,0.00,WeatherDisplay:10.37,2013-07-13 21:35:00,
2013-07-13 14:40:00,65.8,36.7,29.71,West,260,6.0,9.0,34,0.00,CLR,,0.00,WeatherDisplay:10.37,2013-07-13 21:40:00,
2013-07-13 14:45:00,65.7,36.5,29.71,West,262,7.0,14.0,34,0.00,CLR,,0.00,WeatherDisplay:10.37,2013-07-13 21:45:00,
2013-07-13 14:50:00,65.5,36.4,29.71,West,269,5.0,10.0,34,0.00,CLR,,0.00,WeatherDisplay:10.37,2013-07-13 21:50:00,
2013-07-13 14:55:00,65.5,36.4,29.71,West,261,5.0,13.0,34,0.00,CLR,,0.00,WeatherDisplay:10.37,2013-07-13 21:55:00,
2013-07-13 15:00:00,65.5,35.6,29.71,SW,231,6.0,9.0,33,0.00,CLR,,0.00,WeatherDisplay:10.37,2013-07-13 22:00:00,
2013-07-13 15:05:00,65.5,35.6,29.71,WSW,251,6.0,13.0,33,0.00,CLR,,0.00,WeatherDisplay:10.37,2013-07-13 22:05:00,
2013-07-13 15:10:00,65.3,35.4,29.71,West,270,5.0,6.0,33,0.00,CLR,,0.00,WeatherDisplay:10.37,2013-07-13 22:10:00,
2013-07-13 15:15:00,65.3,35.4,29.71,South,190,5.0,8.0,33,0.00,CLR,,0.00,WeatherDisplay:10.37,2013-07-13 22:15:00,
2013-07-13 15:20:00,65.3,35.4,29.71,SSW,197,5.0,10.0,33,0.00,CLR,,0.00,WeatherDisplay:10.37,2013-07-13 22:20:00,
2013-07-13 15:25:00,65.1,35.3,29.71,SSW,209,3.0,9.0,33,0.00,CLR,,0.00,WeatherDisplay:10.37,2013-07-13 22:25:00,
2013-07-13 15:30:00,65.1,35.3,29.71,SSE,166,3.0,10.0,33,0.00,CLR,,0.00,WeatherDisplay:10.37,2013-07-13 22:30:00,
2013-07-13 15:35:00,65.1,35.3,29.71,SE,142,3.0,7.0,33,0.00,CLR,,0.00,WeatherDisplay:10.37,2013-07-13 22:35:00,
2013-07-13 15:40:00,64.9,35.1,29.71,SW,224,6.0,12.0,33,0.00,CLR,,0.00,WeatherDisplay:10.37,2013-07-13 22:40:00,
2013-07-13 15:45:00,64.8,35.0,29.71,SSE,153,5.0,8.0,33,0.00,CLR,,0.00,WeatherDisplay:10.37,2013-07-13 22:45:00,
2013-07-13 15:50:00,64.8,35.0,29.71,SSE,162,5.0,8.0,33,0.00,CLR,,0.00,WeatherDisplay:10.37,2013-07-13 22:50:00,
2013-07-13 15:55:00,64.6,34.8,29.68,SSW,196,5.0,8.0,33,0.00,CLR,,0.00,WeatherDisplay:10.37,2013-07-13 22:55:00,
2013-07-13 16:00:00,64.6,34.8,29.68,SW,216,5.0,10.0,33,0.00,CLR,,0.00,WeatherDisplay:10.37,2013-07-13 23:00:00,
2013-07-13 16:05:00,64.4,34.6,29.68,SSW,203,5.0,9.0,33,0.00,CLR,,0.00,WeatherDisplay:10.37,2013-07-13 23:05:00,
2013-07-13 16:10:00,64.2,34.5,29.68,WSW,240,5.0,8.0,33,0.00,CLR,,0.00,WeatherDisplay:10.37,2013-07-13 23:10:00,
2013-07-13 16:20:00,64.0,35.1,29.68,SSW,207,6.0,9.0,34,0.00,CLR,,0.00,WeatherDisplay:10.37,2013-07-13 23:20:00,
2013-07-13 16:25:00,64.0,35.1,29.68,SW,227,5.0,10.0,34,0.00,CLR,,0.00,WeatherDisplay:10.37,2013-07-13 23:25:00,
2013-07-13 16:30:00,63.9,34.9,29.68,WSW,249,6.0,13.0,34,0.00,CLR,,0.00,WeatherDisplay:10.37,2013-07-13 23:30:00,
2013-07-13 16:35:00,63.7,34.8,29.68,West,268,6.0,12.0,34,0.00,CLR,,0.00,WeatherDisplay:10.37,2013-07-13 23:35:00,
2013-07-13 16:40:00,63.5,34.6,29.68,WSW,254,3.0,10.0,34,0.00,CLR,,0.00,WeatherDisplay:10.37,2013-07-13 23:40:00,
2013-07-13 16:45:00,63.4,34.5,29.68,SW,231,6.0,10.0,34,0.00,CLR,,0.00,WeatherDisplay:10.37,2013-07-13 23:45:00,
2013-07-13 16:50:00,63.1,34.3,29.68,West,262,6.0,10.0,34,0.00,CLR,,0.00,WeatherDisplay:10.37,2013-07-13 23:50:00,
2013-07-13 16:55:00,63.0,34.1,29.68,WSW,253,5.0,10.0,34,0.00,CLR,,0.00,WeatherDisplay:10.37,2013-07-13 23:55:00,
2013-07-13 17:00:00,62.8,34.0,29.68,SSW,209,5.0,8.0,34,0.00,CLR,,0.00,WeatherDisplay:10.37,2013-07-14 00:00:00,
2013-07-13 17:05:00,62.8,34.0,29.68,WSW,254,3.0,10.0,34,0.00,CLR,,0.00,WeatherDisplay:10.37,2013-07-14 00:05:00,
2013-07-13 17:10:00,62.8,34.7,29.68,WNW,287,6.0,10.0,35,0.00,CLR,,0.00,WeatherDisplay:10.37,2013-07-14 00:10:00,
2013-07-13 17:15:00,62.6,34.5,29.68,WSW,257,7.0,12.0,35,0.00,CLR,,0.00,WeatherDisplay:10.37,2013-07-14 00:15:00,
2013-07-13 17:20:00,62.4,34.4,29.68,WSW,244,6.0,13.0,35,0.00,CLR,,0.00,WeatherDisplay:10.37,2013-07-14 00:20:00,
2013-07-13 17:25:00,62.2,34.2,29.68,WSW,250,6.0,8.0,35,0.00,CLR,,0.00,WeatherDisplay:10.37,2013-07-14 00:25:00,
2013-07-13 17:30:00,61.9,33.9,29.68,West,274,7.0,13.0,35,0.00,CLR,,0.00,WeatherDisplay:10.37,2013-07-14 00:30:00,
2013-07-13 17:40:00,61.5,34.2,29.68,WSW,258,6.0,12.0,36,0.00,CLR,,0.00,WeatherDisplay:10.37,2013-07-14 00:40:00,
2013-07-13 17:45:00,61.2,34.0,29.68,West,260,6.0,15.0,36,0.00,CLR,,0.00,WeatherDisplay:10.37,2013-07-14 00:45:00,
2013-07-13 17:50:00,61.0,33.8,29.68,WSW,238,6.0,13.0,36,0.00,CLR,,0.00,WeatherDisplay:10.37,2013-07-14 00:50:00,
2013-07-13 17:55:00,61.0,33.8,29.68,WSW,244,7.0,10.0,36,0.00,CLR,,0.00,WeatherDisplay:10.37,2013-07-14 00:55:00,
2013-07-13 18:00:00,60.8,34.3,29.68,WSW,240,6.0,10.0,37,0.00,CLR,,0.00,WeatherDisplay:10.37,2013-07-14 01:00:00,
2013-07-13 18:05:00,60.6,34.2,29.68,WSW,252,5.0,14.0,37,0.00,CLR,,0.00,WeatherDisplay:10.37,2013-07-14 01:05:00,
2013-07-13 18:10:00,60.6,34.2,29.68,WNW,300,5.0,12.0,37,0.00,CLR,,0.00,WeatherDisplay:10.37,2013-07-14 01:10:00,
2013-07-13 18:15:00,60.8,34.3,29.68,North,359,3.0,9.0,37,0.00,CLR,,0.00,WeatherDisplay:10.37,2013-07-14 01:15:00,
2013-07-13 18:20:00,60.6,34.9,29.68,NE,41,2.0,8.0,38,0.00,CLR,,0.00,WeatherDisplay:10.37,2013-07-14 01:20:00,
2013-07-13 18:25:00,60.6,34.9,29.68,NNE,15,2.0,6.0,38,0.00,CLR,,0.00,WeatherDisplay:10.37,2013-07-14 01:25:00,
2013-07-13 18:30:00,61.0,35.2,29.68,NNE,19,2.0,8.0,38,0.00,CLR,,0.00,WeatherDisplay:10.37,2013-07-14 01:30:00,
2013-07-13 18:35:00,60.9,35.1,29.68,NNE,26,3.0,6.0,38,0.00,CLR,,0.00,WeatherDisplay:10.37,2013-07-14 01:35:00,
2013-07-13 18:40:00,61.0,35.2,29.68,NNE,28,3.0,10.0,38,0.00,CLR,,0.00,WeatherDisplay:10.37,2013-07-14 01:40:00,
2013-07-13 18:45:00,60.6,34.9,29.68,East,84,2.0,10.0,38,0.00,CLR,,0.00,WeatherDisplay:10.37,2013-07-14 01:45:00,
2013-07-13 18:50:00,60.5,35.4,29.68,East,95,6.0,9.0,39,0.00,CLR,,0.00,WeatherDisplay:10.37,2013-07-14 01:50:00,
2013-07-13 18:55:00,60.6,35.5,29.68,NE,49,5.0,6.0,39,0.00,CLR,,0.00,WeatherDisplay:10.37,2013-07-14 01:55:00,
2013-07-13 19:00:00,60.6,35.5,29.68,NE,54,3.0,6.0,39,0.00,CLR,,0.00,WeatherDisplay:10.37,2013-07-14 02:00:00,
2013-07-13 19:05:00,60.4,35.3,29.68,ENE,69,5.0,8.0,39,0.00,CLR,,0.00,WeatherDisplay:10.37,2013-07-14 02:05:00,
2013-07-13 19:10:00,59.9,34.9,29.68,East,96,3.0,8.0,39,0.00,CLR,,0.00,WeatherDisplay:10.37,2013-07-14 02:10:00,
2013-07-13 19:15:00,59.9,34.9,29.68,WSW,251,2.0,7.0,39,0.00,CLR,,0.00,WeatherDisplay:10.37,2013-07-14 02:15:00,
2013-07-13 19:20:00,59.7,34.6,29.68,NW,322,6.0,8.0,39,0.00,CLR,,0.00,WeatherDisplay:10.37,2013-07-14 02:20:00,
2013-07-13 19:25:00,59.5,35.2,29.65,WNW,297,3.0,10.0,40,0.00,CLR,,0.00,WeatherDisplay:10.37,2013-07-14 02:25:00,
2013-07-13 19:30:00,59.4,35.0,29.65,WNW,291,3.0,8.0,40,0.00,CLR,,0.00,WeatherDisplay:10.37,2013-07-14 02:30:00,
2013-07-13 19:35:00,59.4,35.0,29.65,NW,304,5.0,6.0,40,0.00,CLR,,0.00,WeatherDisplay:10.37,2013-07-14 02:35:00,
2013-07-13 19:45:00,59.2,34.9,29.68,WNW,299,5.0,9.0,40,0.00,CLR,,0.00,WeatherDisplay:10.37,2013-07-14 02:45:00,
2013-07-13 19:50:00,59.2,34.9,29.68,West,271,5.0,9.0,40,0.00,CLR,,0.00,WeatherDisplay:10.37,2013-07-14 02:50:00,
2013-07-13 19:55:00,59.0,34.7,29.68,SW,233,2.0,8.0,40,0.00,CLR,,0.00,WeatherDisplay:10.37,2013-07-14 02:55:00,
2013-07-13 20:00:00,59.0,34.7,29.68,NW,308,3.0,8.0,40,0.00,CLR,,0.00,WeatherDisplay:10.37,2013-07-14 03:00:00,
2013-07-13 20:05:00,59.0,34.7,29.68,North,6,3.0,6.0,40,0.00,CLR,,0.00,WeatherDisplay:10.37,2013-07-14 03:05:00,
2013-07-13 20:10:00,58.8,34.5,29.68,NE,43,3.0,6.0,40,0.00,CLR,,0.00,WeatherDisplay:10.37,2013-07-14 03:10:00,
2013-07-13 20:15:00,58.8,34.5,29.68,NE,36,6.0,9.0,40,0.00,CLR,,0.00,WeatherDisplay:10.37,2013-07-14 03:15:00,
2013-07-13 20:20:00,58.6,34.4,29.68,NNE,28,1.0,9.0,40,0.00,CLR,,0.00,WeatherDisplay:10.37,2013-07-14 03:20:00,
2013-07-13 20:25:00,58.5,34.9,29.68,NE,42,1.0,6.0,41,0.00,CLR,,0.00,WeatherDisplay:10.37,2013-07-14 03:25:00,
2013-07-13 20:30:00,58.6,35.0,29.68,North,359,5.0,10.0,41,0.00,CLR,,0.00,WeatherDisplay:10.37,2013-07-14 03:30:00,
2013-07-13 20:35:00,58.6,35.0,29.68,North,349,2.0,6.0,41,0.00,CLR,,0.00,WeatherDisplay:10.37,2013-07-14 03:35:00,
2013-07-13 20:40:00,58.5,34.8,29.68,NNW,332,2.0,10.0,41,0.00,CLR,,0.00,WeatherDisplay:10.37,2013-07-14 03:40:00,
2013-07-13 20:50:00,58.5,34.8,29.68,NE,48,2.0,5.0,41,0.00,CLR,,0.00,WeatherDisplay:10.37,2013-07-14 03:50:00,
2013-07-13 20:55:00,58.3,34.7,29.68,NNW,337,2.0,7.0,41,0.00,CLR,,0.00,WeatherDisplay:10.37,2013-07-14 03:55:00,
2013-07-13 21:00:00,58.4,35.4,29.68,North,3,2.0,6.0,42,0.00,CLR,,0.00,WeatherDisplay:10.37,2013-07-14 04:00:00,
2013-07-13 21:05:00,58.3,35.3,29.68,ESE,106,0.0,5.0,42,0.00,CLR,,0.00,WeatherDisplay:10.37,2013-07-14 04:05:00,
2013-07-13 21:10:00,58.2,35.2,29.71,SE,140,1.0,6.0,42,0.00,CLR,,0.00,WeatherDisplay:10.37,2013-07-14 04:10:00,
2013-07-13 21:15:00,58.2,35.2,29.71,North,351,0.0,6.0,42,0.00,CLR,,0.00,WeatherDisplay:10.37,2013-07-14 04:15:00,
2013-07-13 21:20:00,58.1,35.1,29.71,NW,323,1.0,5.0,42,0.00,CLR,,0.00,WeatherDisplay:10.37,2013-07-14 04:20:00,
2013-07-13 21:25:00,58.1,35.1,29.71,WSW,241,3.0,6.0,42,0.00,CLR,,0.00,WeatherDisplay:10.37,2013-07-14 04:25:00,
2013-07-13 21:30:00,58.1,35.7,29.71,SW,235,1.0,6.0,43,0.00,CLR,,0.00,WeatherDisplay:10.37,2013-07-14 04:30:00,
2013-07-13 21:35:00,58.1,35.7,29.71,West,280,5.0,10.0,43,0.00,CLR,,0.00,WeatherDisplay:10.37,2013-07-14 04:35:00,
2013-07-13 21:40:00,58.1,35.7,29.68,NNW,332,1.0,6.0,43,0.00,CLR,,0.00,WeatherDisplay:10.37,2013-07-14 04:40:00,
2013-07-13 21:45:00,57.9,35.5,29.68,NW,318,3.0,9.0,43,0.00,CLR,,0.00,WeatherDisplay:10.37,2013-07-14 04:45:00,
2013-07-13 21:50:00,58.1,35.7,29.68,NW,315,3.0,7.0,43,0.00,CLR,,0.00,WeatherDisplay:10.37,2013-07-14 04:50:00,
2013-07-13 21:55:00,58.1,35.7,29.68,WNW,282,3.0,12.0,43,0.00,CLR,,0.00,WeatherDisplay:10.37,2013-07-14 04:55:00,
2013-07-13 22:00:00,57.9,35.5,29.68,NW,306,6.0,8.0,43,0.00,CLR,,0.00,WeatherDisplay:10.37,2013-07-14 05:00:00,
2013-07-13 22:05:00,57.7,35.4,29.68,NNW,347,3.0,7.0,43,0.00,CLR,,0.00,WeatherDisplay:10.37,2013-07-14 05:05:00,
2013-07-13 22:10:00,57.7,36.0,29.71,NNW,345,5.0,7.0,44,0.00,CLR,,0.00,WeatherDisplay:10.37,2013-07-14 05:10:00,
2013-07-13 22:15:00,57.6,35.8,29.71,North,4,3.0,8.0,44,0.00,CLR,,0.00,WeatherDisplay:10.37,2013-07-14 05:15:00,
2013-07-13 22:20:00,57.6,35.8,29.71,South,188,5.0,8.0,44,0.00,CLR,,0.00,WeatherDisplay:10.37,2013-07-14 05:20:00,
2013-07-13 22:25:00,57.6,35.8,29.71,NNE,22,5.0,9.0,44,0.00,CLR,,0.00,WeatherDisplay:10.37,2013-07-14 05:25:00,
2013-07-13 22:30:00,57.6,35.8,29.71,NNW,347,5.0,9.0,44,0.00,CLR,,0.00,WeatherDisplay:10.37,2013-07-14 05:30:00,
2013-07-13 22:35:00,57.4,35.7,29.71,North,352,2.0,6.0,44,0.00,CLR,,0.00,WeatherDisplay:10.37,2013-07-14 05:35:00,
2013-07-13 22:40:00,57.4,35.6,29.71,NE,55,5.0,6.0,44,0.00,CLR,,0.00,WeatherDisplay:10.37,2013-07-14 05:40:00,
2013-07-13 22:45:00,57.4,35.6,29.71,North,351,2.0,6.0,44,0.00,CLR,,0.00,WeatherDisplay:10.37,2013-07-14 05:45:00,
2013-07-13 22:50:00,57.2,35.5,29.71,North,354,2.0,5.0,44,0.00,CLR,,0.00,WeatherDisplay:10.37,2013-07-14 05:50:00,
2013-07-13 22:55:00,57.4,35.6,29.71,North,354,5.0,8.0,44,0.00,CLR,,0.00,WeatherDisplay:10.37,2013-07-14 05:55:00,
2013-07-13 23:00:00,57.2,36.0,29.71,NW,320,3.0,10.0,45,0.00,CLR,,0.00,WeatherDisplay:10.37,2013-07-14 06:00:00,
2013-07-13 23:05:00,57.2,36.0,29.71,NW,311,1.0,6.0,45,0.00,CLR,,0.00,WeatherDisplay:10.37,2013-07-14 06:05:00,
2013-07-13 23:10:00,57.2,36.0,29.71,WNW,296,1.0,6.0,45,0.00,CLR,,0.00,WeatherDisplay:10.37,2013-07-14 06:10:00,
2013-07-13 23:15:00,57.2,36.0,29.71,WNW,301,3.0,6.0,45,0.00,CLR,,0.00,WeatherDisplay:10.37,2013-07-14 06:15:00,
2013-07-13 23:20:00,57.2,36.0,29.71,NNW,332,2.0,6.0,45,0.00,CLR,,0.00,WeatherDisplay:10.37,2013-07-14 06:20:00,
2013-07-13 23:25:00,57.2,36.0,29.71,North,3,1.0,6.0,45,0.00,CLR,,0.00,WeatherDisplay:10.37,2013-07-14 06:25:00,
2013-07-13 23:30:00,57.2,36.0,29.71,North,4,3.0,6.0,45,0.00,CLR,,0.00,WeatherDisplay:10.37,2013-07-14 06:30:00,
2013-07-13 23:35:00,57.2,36.0,29.71,ENE,69,5.0,6.0,45,0.00,CLR,,0.00,WeatherDisplay:10.37,2013-07-14 06:35:00,
2013-07-13 23:40:00,57.2,36.0,29.71,ENE,73,1.0,7.0,45,0.00,CLR,,0.00,WeatherDisplay:10.37,2013-07-14 06:40:00,
2013-07-13 23:45:00,57.2,36.0,29.71,East,80,1.0,7.0,45,0.00,CLR,,0.00,WeatherDisplay:10.37,2013-07-14 06:45:00,
2013-07-13 23:50:00,57.2,36.0,29.71,ENE,69,1.0,5.0,45,0.00,CLR,,0.00,WeatherDisplay:10.37,2013-07-14 06:50:00,
2013-07-13 23:55:00,57.2,36.0,29.71,East,81,1.0,5.0,45,0.00,CLR,,0.00,WeatherDisplay:10.37,2013-07-14 06:55:00,